Main page
METAR-TAF:

METAR-TAF

Airports :

Limoges – Bellegarde Airport

Limoges, France

latitude: 45-52N, longitude: 001-11E, elevation: 396 m

Current weather observation

The report was made 31 minutes ago, at 04:00 UTC
Wind 11 kt from the East/Northeast
Temperature 13°C
Humidity 67%
Pressure 1029 hPa
Visibility 10 km or more
no clouds below 1500 m and no cumulonimbus

METAR: LFBL 260400Z AUTO 06011KT CAVOK 13/07 Q1029 NOSIG

Time: 06:31 (04:31 UTC)

Forecast

The report was made 5 hours and 31 minutes ago, at 23:00 UTC
Forecast valid from 26 at 00 UTC to 26 at 24 UTC
Wind 12 kt from the East/Northeast
Visibility 10 km or more
no clouds below 1500 m and no cumulonimbus

TAF: LFBL 252300Z 2600/2624 06012KT CAVOK

Weather observations and forecasts of more than 4000 airports (METAR and TAF reports).

The available stations are represented by yellow and red dots on the map.

Hover mouse over dot to see the name of the station.

Then click to see weather observations and forecasts.

To change the map : click on the green buttons with a black cross to zoom in, on the green button with a dash to zoom out, or on the green arrows for adjacent maps.


METAR-TAF: